Terminal Aerodrome Forecast
Issued by NWS

Home | Current Version | Previous Version | Text Only | Print | Product List | Glossary Off
Versions: 1 2 3 4 5 6 7 8 9 10 11 12 13 14 15 16 17 18 19 20

000
FTUS43 KGRB 231632 AAA
TAFAUW
TAF AMD
KAUW 231632Z 2317/2412 32004KT P6SM SCT005 OVC035
      TEMPO 2317/2319 5SM BR OVC005
     FM231900 VRB03KT 5SM BR OVC004
     FM240600 00000KT 2SM BR OVC002=

USA.gov is the U.S. government's official web portal to all federal, state and local government web resources and services.